sensor_id;sensor_type;location;lat;lon;timestamp;pressure;altitude;pressure_sealevel;temperature;humidity
66560;BME280;53413;49.878;8.142;2023-07-24T00:00:01;99168.09;;;19.36;89.26
66560;BME280;53413;49.878;8.142;2023-07-24T00:02:26;99176.06;;;19.36;89.52
66560;BME280;53413;49.878;8.142;2023-07-24T00:04:52;99163.06;;;19.33;90.83
66560;BME280;53413;49.878;8.142;2023-07-24T00:07:17;99158.16;;;19.29;91.58
66560;BME280;53413;49.878;8.142;2023-07-24T00:09:44;99148.91;;;19.23;91.97
66560;BME280;53413;49.878;8.142;2023-07-24T00:12:09;99149.19;;;19.20;93.03
66560;BME280;53413;49.878;8.142;2023-07-24T00:14:34;99144.16;;;19.17;93.88
66560;BME280;53413;49.878;8.142;2023-07-24T00:17:00;99145.25;;;19.14;94.77
66560;BME280;53413;49.878;8.142;2023-07-24T00:19:25;99151.69;;;19.12;95.39
66560;BME280;53413;49.878;8.142;2023-07-24T00:21:50;99146.63;;;19.08;96.24
66560;BME280;53413;49.878;8.142;2023-07-24T00:24:16;99143.97;;;19.08;96.87
66560;BME280;53413;49.878;8.142;2023-07-24T00:26:41;99147.59;;;19.07;94.21
66560;BME280;53413;49.878;8.142;2023-07-24T00:29:06;99152.09;;;19.07;94.16
66560;BME280;53413;49.878;8.142;2023-07-24T00:31:32;99144.84;;;19.09;94.87
66560;BME280;53413;49.878;8.142;2023-07-24T00:33:57;99138.66;;;19.08;95.25
66560;BME280;53413;49.878;8.142;2023-07-24T00:36:25;99136.97;;;19.07;96.96
66560;BME280;53413;49.878;8.142;2023-07-24T00:38:50;99134.47;;;19.06;97.84
66560;BME280;53413;49.878;8.142;2023-07-24T00:41:16;99140.91;;;19.03;98.30
66560;BME280;53413;49.878;8.142;2023-07-24T00:43:41;99142.84;;;19.01;99.22
66560;BME280;53413;49.878;8.142;2023-07-24T00:46:07;99140.44;;;18.98;99.35
66560;BME280;53413;49.878;8.142;2023-07-24T00:48:32;99139.72;;;18.96;100.00
66560;BME280;53413;49.878;8.142;2023-07-24T00:50:57;99141.09;;;18.90;100.00
66560;BME280;53413;49.878;8.142;2023-07-24T00:53:23;99131.00;;;18.84;100.00
66560;BME280;53413;49.878;8.142;2023-07-24T00:55:48;99132.50;;;18.77;100.00
66560;BME280;53413;49.878;8.142;2023-07-24T00:58:16;99135.56;;;18.72;100.00
66560;BME280;53413;49.878;8.142;2023-07-24T01:00:41;99130.41;;;18.71;100.00
66560;BME280;53413;49.878;8.142;2023-07-24T01:03:07;99122.28;;;18.72;100.00
66560;BME280;53413;49.878;8.142;2023-07-24T01:05:32;99113.25;;;18.75;100.00
66560;BME280;53413;49.878;8.142;2023-07-24T01:07:57;99117.59;;;18.76;100.00
66560;BME280;53413;49.878;8.142;2023-07-24T01:10:23;99113.94;;;18.77;99.92
66560;BME280;53413;49.878;8.142;2023-07-24T01:13:14;99103.47;;;18.75;100.00
66560;BME280;53413;49.878;8.142;2023-07-24T01:16:00;99097.00;;;18.68;100.00
66560;BME280;53413;49.878;8.142;2023-07-24T01:18:29;99099.22;;;18.63;100.00
66560;BME280;53413;49.878;8.142;2023-07-24T01:20:56;99101.16;;;18.61;100.00
66560;BME280;53413;49.878;8.142;2023-07-24T01:26:09;99101.28;;;18.59;100.00
66560;BME280;53413;49.878;8.142;2023-07-24T01:28:35;99107.56;;;18.58;100.00
66560;BME280;53413;49.878;8.142;2023-07-24T01:31:00;99098.91;;;18.56;100.00
66560;BME280;53413;49.878;8.142;2023-07-24T01:33:26;99103.63;;;18.53;100.00
66560;BME280;53413;49.878;8.142;2023-07-24T01:35:58;99096.66;;;18.52;100.00
66560;BME280;53413;49.878;8.142;2023-07-24T01:38:24;99084.34;;;18.51;100.00
66560;BME280;53413;49.878;8.142;2023-07-24T01:40:56;99071.22;;;18.49;100.00
66560;BME280;53413;49.878;8.142;2023-07-24T01:43:22;99069.56;;;18.48;100.00
66560;BME280;53413;49.878;8.142;2023-07-24T01:45:47;99059.75;;;18.49;100.00
66560;BME280;53413;49.878;8.142;2023-07-24T01:48:13;99044.81;;;18.48;100.00
66560;BME280;53413;49.878;8.142;2023-07-24T01:50:38;99041.19;;;18.49;100.00
66560;BME280;53413;49.878;8.142;2023-07-24T01:53:03;99031.69;;;18.46;100.00
66560;BME280;53413;49.878;8.142;2023-07-24T01:55:28;99018.59;;;18.44;100.00
66560;BME280;53413;49.878;8.142;2023-07-24T01:57:54;99013.28;;;18.44;100.00
66560;BME280;53413;49.878;8.142;2023-07-24T02:00:19;99014.81;;;18.47;100.00
66560;BME280;53413;49.878;8.142;2023-07-24T02:02:45;99010.06;;;18.51;100.00
66560;BME280;53413;49.878;8.142;2023-07-24T02:05:11;99018.47;;;18.56;100.00
66560;BME280;53413;49.878;8.142;2023-07-24T02:07:36;99024.50;;;18.58;100.00
66560;BME280;53413;49.878;8.142;2023-07-24T02:10:02;99025.72;;;18.54;100.00
66560;BME280;53413;49.878;8.142;2023-07-24T02:12:27;99032.81;;;18.43;100.00
66560;BME280;53413;49.878;8.142;2023-07-24T02:14:53;99045.31;;;18.31;100.00
66560;BME280;53413;49.878;8.142;2023-07-24T02:17:19;99045.41;;;18.20;100.00
66560;BME280;53413;49.878;8.142;2023-07-24T02:19:45;99038.38;;;18.09;100.00
66560;BME280;53413;49.878;8.142;2023-07-24T02:22:10;99034.13;;;17.97;100.00
66560;BME280;53413;49.878;8.142;2023-07-24T02:24:36;99033.44;;;17.83;100.00
66560;BME280;53413;49.878;8.142;2023-07-24T02:27:01;99043.63;;;17.67;100.00
66560;BME280;53413;49.878;8.142;2023-07-24T02:29:27;99038.91;;;17.49;100.00
66560;BME280;53413;49.878;8.142;2023-07-24T02:31:57;99041.28;;;17.31;100.00
66560;BME280;53413;49.878;8.142;2023-07-24T02:34:22;99038.06;;;17.16;100.00
66560;BME280;53413;49.878;8.142;2023-07-24T02:36:51;99042.78;;;17.01;100.00
66560;BME280;53413;49.878;8.142;2023-07-24T02:39:17;99052.53;;;16.89;100.00
66560;BME280;53413;49.878;8.142;2023-07-24T02:41:42;99049.91;;;16.89;100.00
66560;BME280;53413;49.878;8.142;2023-07-24T02:44:07;99051.81;;;17.10;100.00
66560;BME280;53413;49.878;8.142;2023-07-24T02:46:33;99043.06;;;17.31;100.00
66560;BME280;53413;49.878;8.142;2023-07-24T02:48:58;99043.22;;;17.50;100.00
66560;BME280;53413;49.878;8.142;2023-07-24T02:51:24;99037.03;;;17.61;100.00
66560;BME280;53413;49.878;8.142;2023-07-24T02:53:49;99045.56;;;17.65;100.00
66560;BME280;53413;49.878;8.142;2023-07-24T02:56:14;99038.34;;;17.67;100.00
66560;BME280;53413;49.878;8.142;2023-07-24T02:58:40;99025.47;;;17.62;100.00
66560;BME280;53413;49.878;8.142;2023-07-24T03:01:07;99018.69;;;17.48;100.00
66560;BME280;53413;49.878;8.142;2023-07-24T03:03:33;99022.84;;;17.30;100.00
66560;BME280;53413;49.878;8.142;2023-07-24T03:05:59;99038.31;;;17.13;100.00
66560;BME280;53413;49.878;8.142;2023-07-24T03:08:24;99034.72;;;17.03;100.00
66560;BME280;53413;49.878;8.142;2023-07-24T03:10:50;99027.44;;;16.95;100.00
66560;BME280;53413;49.878;8.142;2023-07-24T03:13:15;99020.66;;;16.91;100.00
66560;BME280;53413;49.878;8.142;2023-07-24T03:15:40;99005.16;;;16.86;100.00
66560;BME280;53413;49.878;8.142;2023-07-24T03:18:06;98998.66;;;16.79;100.00
66560;BME280;53413;49.878;8.142;2023-07-24T03:20:31;99002.19;;;16.68;100.00
66560;BME280;53413;49.878;8.142;2023-07-24T03:22:56;98983.91;;;16.65;100.00
66560;BME280;53413;49.878;8.142;2023-07-24T03:25:22;98978.72;;;16.75;100.00
66560;BME280;53413;49.878;8.142;2023-07-24T03:27:47;98983.13;;;16.86;100.00
66560;BME280;53413;49.878;8.142;2023-07-24T03:30:13;98989.53;;;16.95;100.00
66560;BME280;53413;49.878;8.142;2023-07-24T03:32:38;98977.59;;;17.00;100.00
66560;BME280;53413;49.878;8.142;2023-07-24T03:35:04;98962.28;;;17.04;100.00
66560;BME280;53413;49.878;8.142;2023-07-24T03:37:31;98947.38;;;17.03;100.00
66560;BME280;53413;49.878;8.142;2023-07-24T03:39:56;98925.53;;;17.01;100.00
66560;BME280;53413;49.878;8.142;2023-07-24T03:42:30;98922.97;;;16.99;100.00
66560;BME280;53413;49.878;8.142;2023-07-24T03:44:56;98915.03;;;16.99;100.00
66560;BME280;53413;49.878;8.142;2023-07-24T03:47:22;98928.16;;;17.01;100.00
66560;BME280;53413;49.878;8.142;2023-07-24T03:49:48;98941.00;;;17.05;100.00
66560;BME280;53413;49.878;8.142;2023-07-24T03:52:13;98942.69;;;17.06;100.00
66560;BME280;53413;49.878;8.142;2023-07-24T03:54:38;98948.81;;;17.07;100.00
66560;BME280;53413;49.878;8.142;2023-07-24T03:57:04;98953.00;;;17.10;100.00
66560;BME280;53413;49.878;8.142;2023-07-24T03:59:30;98951.66;;;17.15;100.00
66560;BME280;53413;49.878;8.142;2023-07-24T04:01:55;98942.50;;;17.19;100.00
66560;BME280;53413;49.878;8.142;2023-07-24T04:04:20;98958.16;;;17.22;100.00
66560;BME280;53413;49.878;8.142;2023-07-24T04:06:47;98960.66;;;17.24;100.00
66560;BME280;53413;49.878;8.142;2023-07-24T04:09:12;98956.66;;;17.30;100.00
66560;BME280;53413;49.878;8.142;2023-07-24T04:11:40;98954.59;;;17.33;100.00
66560;BME280;53413;49.878;8.142;2023-07-24T04:14:05;98958.41;;;17.41;100.00
66560;BME280;53413;49.878;8.142;2023-07-24T04:16:31;98961.00;;;17.52;100.00
66560;BME280;53413;49.878;8.142;2023-07-24T04:18:56;98954.78;;;17.63;100.00
66560;BME280;53413;49.878;8.142;2023-07-24T04:21:22;98959.56;;;17.69;100.00
66560;BME280;53413;49.878;8.142;2023-07-24T04:23:47;98975.66;;;17.77;100.00
66560;BME280;53413;49.878;8.142;2023-07-24T04:26:13;98975.84;;;17.85;100.00
66560;BME280;53413;49.878;8.142;2023-07-24T04:28:38;98966.16;;;17.96;100.00
66560;BME280;53413;49.878;8.142;2023-07-24T04:31:03;98963.44;;;18.07;100.00
66560;BME280;53413;49.878;8.142;2023-07-24T04:33:29;98967.94;;;18.17;100.00
66560;BME280;53413;49.878;8.142;2023-07-24T04:35:55;98972.84;;;18.21;100.00
66560;BME280;53413;49.878;8.142;2023-07-24T04:38:21;98981.34;;;18.25;100.00
66560;BME280;53413;49.878;8.142;2023-07-24T04:40:46;98994.34;;;18.28;100.00
66560;BME280;53413;49.878;8.142;2023-07-24T04:43:11;98998.69;;;18.29;100.00
66560;BME280;53413;49.878;8.142;2023-07-24T04:45:37;98979.88;;;18.32;100.00
66560;BME280;53413;49.878;8.142;2023-07-24T04:48:02;98970.94;;;18.43;100.00
66560;BME280;53413;49.878;8.142;2023-07-24T04:50:28;98968.34;;;18.53;100.00
66560;BME280;53413;49.878;8.142;2023-07-24T04:52:53;98968.50;;;18.61;100.00
66560;BME280;53413;49.878;8.142;2023-07-24T04:55:18;98973.97;;;18.69;100.00
66560;BME280;53413;49.878;8.142;2023-07-24T04:57:44;98979.44;;;18.77;100.00
66560;BME280;53413;49.878;8.142;2023-07-24T05:00:09;98989.38;;;18.85;100.00
66560;BME280;53413;49.878;8.142;2023-07-24T05:02:35;98986.03;;;18.93;100.00
66560;BME280;53413;49.878;8.142;2023-07-24T05:05:00;99004.34;;;18.96;100.00
66560;BME280;53413;49.878;8.142;2023-07-24T05:07:25;99000.72;;;18.97;100.00
66560;BME280;53413;49.878;8.142;2023-07-24T05:09:51;98996.56;;;19.04;100.00
66560;BME280;53413;49.878;8.142;2023-07-24T05:12:16;98988.72;;;19.13;100.00
66560;BME280;53413;49.878;8.142;2023-07-24T05:14:41;98986.91;;;19.23;100.00
66560;BME280;53413;49.878;8.142;2023-07-24T05:17:07;98977.81;;;19.35;100.00
66560;BME280;53413;49.878;8.142;2023-07-24T05:19:32;98977.38;;;19.50;100.00
66560;BME280;53413;49.878;8.142;2023-07-24T05:21:57;98978.38;;;19.59;100.00
66560;BME280;53413;49.878;8.142;2023-07-24T05:24:24;98974.16;;;19.66;100.00
66560;BME280;53413;49.878;8.142;2023-07-24T05:26:49;98972.34;;;19.66;100.00
66560;BME280;53413;49.878;8.142;2023-07-24T05:29:15;98982.38;;;19.73;100.00
66560;BME280;53413;49.878;8.142;2023-07-24T05:31:40;98982.81;;;19.78;100.00
66560;BME280;53413;49.878;8.142;2023-07-24T05:34:05;98970.59;;;19.85;100.00
66560;BME280;53413;49.878;8.142;2023-07-24T05:36:31;98972.72;;;19.91;100.00
66560;BME280;53413;49.878;8.142;2023-07-24T05:38:56;98971.28;;;19.97;100.00
66560;BME280;53413;49.878;8.142;2023-07-24T05:41:23;98981.63;;;20.10;100.00
66560;BME280;53413;49.878;8.142;2023-07-24T05:43:48;98979.47;;;20.23;100.00
66560;BME280;53413;49.878;8.142;2023-07-24T05:46:13;98987.41;;;20.33;100.00
66560;BME280;53413;49.878;8.142;2023-07-24T05:48:39;98977.84;;;20.40;100.00
66560;BME280;53413;49.878;8.142;2023-07-24T05:51:04;98975.31;;;20.39;98.47
66560;BME280;53413;49.878;8.142;2023-07-24T05:53:29;98977.31;;;20.37;98.15
66560;BME280;53413;49.878;8.142;2023-07-24T05:56:02;98975.88;;;20.42;98.12
66560;BME280;53413;49.878;8.142;2023-07-24T05:58:28;98977.75;;;20.60;97.24
66560;BME280;53413;49.878;8.142;2023-07-24T06:00:53;98976.25;;;20.85;95.10
66560;BME280;53413;49.878;8.142;2023-07-24T06:03:20;98987.38;;;21.17;93.73
66560;BME280;53413;49.878;8.142;2023-07-24T06:05:45;98976.91;;;21.42;92.49
66560;BME280;53413;49.878;8.142;2023-07-24T06:08:11;98985.34;;;21.73;91.15
66560;BME280;53413;49.878;8.142;2023-07-24T06:10:37;98988.03;;;21.99;89.51
66560;BME280;53413;49.878;8.142;2023-07-24T06:13:02;98984.00;;;22.30;87.13
66560;BME280;53413;49.878;8.142;2023-07-24T06:15:28;98969.69;;;22.82;84.55
66560;BME280;53413;49.878;8.142;2023-07-24T06:17:53;98965.94;;;23.43;79.79
66560;BME280;53413;49.878;8.142;2023-07-24T06:20:18;98955.13;;;24.17;74.93
66560;BME280;53413;49.878;8.142;2023-07-24T06:22:44;98953.88;;;24.68;71.61
66560;BME280;53413;49.878;8.142;2023-07-24T06:25:09;98949.75;;;25.35;67.96
66560;BME280;53413;49.878;8.142;2023-07-24T06:27:34;98952.88;;;26.15;63.22
66560;BME280;53413;49.878;8.142;2023-07-24T06:30:00;98955.00;;;26.20;62.00
66560;BME280;53413;49.878;8.142;2023-07-24T06:32:25;98953.09;;;25.75;62.65
66560;BME280;53413;49.878;8.142;2023-07-24T06:34:50;98954.91;;;25.45;64.34
66560;BME280;53413;49.878;8.142;2023-07-24T06:37:16;98960.97;;;25.15;65.76
66560;BME280;53413;49.878;8.142;2023-07-24T06:39:41;98966.91;;;25.26;66.43
66560;BME280;53413;49.878;8.142;2023-07-24T06:42:07;98971.19;;;26.11;62.01
66560;BME280;53413;49.878;8.142;2023-07-24T06:44:32;98976.41;;;26.80;59.34
66560;BME280;53413;49.878;8.142;2023-07-24T06:46:58;98974.66;;;27.09;58.31
66560;BME280;53413;49.878;8.142;2023-07-24T06:49:23;98972.41;;;27.12;57.57
66560;BME280;53413;49.878;8.142;2023-07-24T06:51:48;98979.13;;;27.23;57.51
66560;BME280;53413;49.878;8.142;2023-07-24T06:54:14;98976.47;;;27.45;55.68
66560;BME280;53413;49.878;8.142;2023-07-24T06:56:39;98990.19;;;27.57;55.11
66560;BME280;53413;49.878;8.142;2023-07-24T06:59:04;98986.50;;;28.21;53.78
66560;BME280;53413;49.878;8.142;2023-07-24T07:01:30;98996.25;;;28.22;53.04
66560;BME280;53413;49.878;8.142;2023-07-24T07:03:55;98986.53;;;27.93;53.78
66560;BME280;53413;49.878;8.142;2023-07-24T07:06:20;98986.69;;;27.56;54.41
66560;BME280;53413;49.878;8.142;2023-07-24T07:08:46;98997.31;;;27.21;55.61
66560;BME280;53413;49.878;8.142;2023-07-24T07:11:11;99006.13;;;26.93;55.24
66560;BME280;53413;49.878;8.142;2023-07-24T07:13:36;98994.97;;;26.45;56.55
66560;BME280;53413;49.878;8.142;2023-07-24T07:16:02;98986.25;;;25.97;57.66
66560;BME280;53413;49.878;8.142;2023-07-24T07:18:27;98985.53;;;25.50;58.91
66560;BME280;53413;49.878;8.142;2023-07-24T07:20:53;98993.16;;;25.15;60.27
66560;BME280;53413;49.878;8.142;2023-07-24T07:23:20;98978.97;;;24.83;60.55
66560;BME280;53413;49.878;8.142;2023-07-24T07:25:46;98965.94;;;24.72;61.88
66560;BME280;53413;49.878;8.142;2023-07-24T07:28:12;98959.75;;;24.71;62.15
66560;BME280;53413;49.878;8.142;2023-07-24T07:30:38;98958.94;;;24.63;62.67
66560;BME280;53413;49.878;8.142;2023-07-24T07:33:03;98941.69;;;24.65;62.63
66560;BME280;53413;49.878;8.142;2023-07-24T07:35:31;98939.31;;;24.70;62.30
66560;BME280;53413;49.878;8.142;2023-07-24T07:37:57;98948.84;;;24.73;62.71
66560;BME280;53413;49.878;8.142;2023-07-24T07:40:22;98947.19;;;24.64;63.22
66560;BME280;53413;49.878;8.142;2023-07-24T07:42:48;98954.44;;;24.55;63.93
66560;BME280;53413;49.878;8.142;2023-07-24T07:45:14;98954.69;;;24.45;65.34
66560;BME280;53413;49.878;8.142;2023-07-24T07:47:39;98962.38;;;24.40;66.11
66560;BME280;53413;49.878;8.142;2023-07-24T07:50:05;98956.88;;;24.33;66.70
66560;BME280;53413;49.878;8.142;2023-07-24T07:52:30;98957.03;;;24.40;66.10
66560;BME280;53413;49.878;8.142;2023-07-24T07:54:55;98943.38;;;24.58;65.91
66560;BME280;53413;49.878;8.142;2023-07-24T07:57:21;98949.06;;;24.95;64.82
66560;BME280;53413;49.878;8.142;2023-07-24T07:59:46;98933.38;;;25.68;62.37
66560;BME280;53413;49.878;8.142;2023-07-24T08:02:11;98933.34;;;26.21;60.58
66560;BME280;53413;49.878;8.142;2023-07-24T08:04:37;98936.53;;;26.47;60.26
66560;BME280;53413;49.878;8.142;2023-07-24T08:07:02;98945.00;;;27.24;58.24
66560;BME280;53413;49.878;8.142;2023-07-24T08:09:28;98938.44;;;28.18;56.17
66560;BME280;53413;49.878;8.142;2023-07-24T08:11:53;98948.03;;;28.76;54.52
66560;BME280;53413;49.878;8.142;2023-07-24T08:14:19;98936.00;;;28.85;52.91
66560;BME280;53413;49.878;8.142;2023-07-24T08:16:44;98929.66;;;28.51;53.02
66560;BME280;53413;49.878;8.142;2023-07-24T08:19:12;98922.91;;;28.14;53.67
66560;BME280;53413;49.878;8.142;2023-07-24T08:21:38;98922.13;;;27.91;54.40
66560;BME280;53413;49.878;8.142;2023-07-24T08:24:04;98929.16;;;27.92;54.28
66560;BME280;53413;49.878;8.142;2023-07-24T08:26:29;98926.44;;;28.21;54.00
66560;BME280;53413;49.878;8.142;2023-07-24T08:28:55;98924.91;;;28.53;52.55
66560;BME280;53413;49.878;8.142;2023-07-24T08:31:20;98919.63;;;28.94;51.51
66560;BME280;53413;49.878;8.142;2023-07-24T08:33:45;98911.31;;;29.76;50.11
66560;BME280;53413;49.878;8.142;2023-07-24T08:36:11;98916.41;;;30.70;47.65
66560;BME280;53413;49.878;8.142;2023-07-24T08:38:39;98905.66;;;31.21;46.25
66560;BME280;53413;49.878;8.142;2023-07-24T08:41:15;98906.56;;;31.84;45.08
66560;BME280;53413;49.878;8.142;2023-07-24T08:43:42;98907.84;;;32.37;44.77
66560;BME280;53413;49.878;8.142;2023-07-24T08:46:08;98897.06;;;32.30;43.78
66560;BME280;53413;49.878;8.142;2023-07-24T08:48:39;98895.84;;;32.75;42.94
66560;BME280;53413;49.878;8.142;2023-07-24T08:51:09;98908.13;;;32.10;43.64
66560;BME280;53413;49.878;8.142;2023-07-24T08:53:37;98901.38;;;31.06;44.97
66560;BME280;53413;49.878;8.142;2023-07-24T08:56:04;98909.59;;;30.15;46.76
66560;BME280;53413;49.878;8.142;2023-07-24T08:58:30;98899.50;;;29.30;47.92
66560;BME280;53413;49.878;8.142;2023-07-24T09:00:57;98892.19;;;28.56;49.32
66560;BME280;53413;49.878;8.142;2023-07-24T09:03:23;98892.03;;;28.16;50.71
66560;BME280;53413;49.878;8.142;2023-07-24T09:05:48;98889.31;;;27.74;51.59
66560;BME280;53413;49.878;8.142;2023-07-24T09:08:14;98890.63;;;27.28;53.01
66560;BME280;53413;49.878;8.142;2023-07-24T09:10:39;98891.88;;;26.82;53.65
66560;BME280;53413;49.878;8.142;2023-07-24T09:13:05;98891.00;;;26.38;56.23
66560;BME280;53413;49.878;8.142;2023-07-24T09:15:43;98874.56;;;26.11;58.47
66560;BME280;53413;49.878;8.142;2023-07-24T09:18:10;98885.75;;;26.00;56.17
66560;BME280;53413;49.878;8.142;2023-07-24T09:20:42;98870.94;;;26.19;55.48
66560;BME280;53413;49.878;8.142;2023-07-24T09:23:09;98859.47;;;28.86;50.99
66560;BME280;53413;49.878;8.142;2023-07-24T09:25:36;98843.00;;;30.92;46.38
66560;BME280;53413;49.878;8.142;2023-07-24T09:28:09;98844.72;;;30.86;45.17
66560;BME280;53413;49.878;8.142;2023-07-24T09:30:35;98845.97;;;32.15;42.56
66560;BME280;53413;49.878;8.142;2023-07-24T09:33:00;98848.47;;;33.73;40.55
66560;BME280;53413;49.878;8.142;2023-07-24T09:35:25;98851.59;;;34.92;37.56
66560;BME280;53413;49.878;8.142;2023-07-24T09:38:06;98831.38;;;35.84;36.18
66560;BME280;53413;49.878;8.142;2023-07-24T09:43:25;98823.19;;;36.06;35.88
66560;BME280;53413;49.878;8.142;2023-07-24T09:45:52;98818.25;;;36.58;35.11
66560;BME280;53413;49.878;8.142;2023-07-24T09:48:19;98823.84;;;38.23;32.87
66560;BME280;53413;49.878;8.142;2023-07-24T09:50:46;98819.22;;;39.21;31.65
66560;BME280;53413;49.878;8.142;2023-07-24T09:53:27;98837.88;;;38.57;31.54
66560;BME280;53413;49.878;8.142;2023-07-24T09:55:58;98842.69;;;37.07;34.18
66560;BME280;53413;49.878;8.142;2023-07-24T09:58:25;98848.81;;;35.26;35.84
66560;BME280;53413;49.878;8.142;2023-07-24T10:00:54;98845.84;;;33.90;38.26
66560;BME280;53413;49.878;8.142;2023-07-24T10:03:21;98859.19;;;32.23;40.37
66560;BME280;53413;49.878;8.142;2023-07-24T10:05:47;98861.88;;;31.49;42.21
66560;BME280;53413;49.878;8.142;2023-07-24T10:08:18;98854.03;;;31.22;43.46
66560;BME280;53413;49.878;8.142;2023-07-24T10:10:44;98856.84;;;31.34;42.68
66560;BME280;53413;49.878;8.142;2023-07-24T10:13:10;98860.97;;;31.37;43.63
66560;BME280;53413;49.878;8.142;2023-07-24T10:15:40;98858.06;;;31.38;42.50
66560;BME280;53413;49.878;8.142;2023-07-24T10:18:08;98852.22;;;31.16;42.92
66560;BME280;53413;49.878;8.142;2023-07-24T10:20:40;98848.56;;;31.04;42.28
66560;BME280;53413;49.878;8.142;2023-07-24T10:23:08;98848.56;;;31.29;42.22
66560;BME280;53413;49.878;8.142;2023-07-24T10:25:36;98851.09;;;31.68;41.13
66560;BME280;53413;49.878;8.142;2023-07-24T10:28:06;98856.47;;;31.74;41.07
66560;BME280;53413;49.878;8.142;2023-07-24T10:30:39;98852.47;;;31.77;41.09
66560;BME280;53413;49.878;8.142;2023-07-24T10:33:08;98849.56;;;31.53;41.84
66560;BME280;53413;49.878;8.142;2023-07-24T10:35:42;98840.06;;;31.69;41.55
66560;BME280;53413;49.878;8.142;2023-07-24T10:38:09;98859.72;;;31.58;41.39
66560;BME280;53413;49.878;8.142;2023-07-24T10:40:35;98856.72;;;31.22;41.60
66560;BME280;53413;49.878;8.142;2023-07-24T10:43:04;98852.13;;;30.97;42.27
66560;BME280;53413;49.878;8.142;2023-07-24T10:45:50;98834.31;;;30.90;41.95
66560;BME280;53413;49.878;8.142;2023-07-24T10:48:20;98835.56;;;30.87;41.97
66560;BME280;53413;49.878;8.142;2023-07-24T10:50:49;98842.56;;;30.95;42.31
66560;BME280;53413;49.878;8.142;2023-07-24T10:53:17;98836.91;;;31.03;42.10
66560;BME280;53413;49.878;8.142;2023-07-24T10:55:43;98831.28;;;31.05;42.60
66560;BME280;53413;49.878;8.142;2023-07-24T10:58:10;98839.31;;;30.86;43.03
66560;BME280;53413;49.878;8.142;2023-07-24T11:00:36;98834.25;;;30.71;43.77
66560;BME280;53413;49.878;8.142;2023-07-24T11:03:02;98835.59;;;30.55;44.15
66560;BME280;53413;49.878;8.142;2023-07-24T11:05:28;98835.00;;;30.46;44.91
66560;BME280;53413;49.878;8.142;2023-07-24T11:07:54;98818.75;;;30.53;44.92
66560;BME280;53413;49.878;8.142;2023-07-24T11:10:22;98828.09;;;30.57;44.62
66560;BME280;53413;49.878;8.142;2023-07-24T11:12:48;98824.16;;;30.53;44.72
66560;BME280;53413;49.878;8.142;2023-07-24T11:15:14;98829.56;;;30.53;44.69
66560;BME280;53413;49.878;8.142;2023-07-24T11:17:41;98822.03;;;30.87;43.89
66560;BME280;53413;49.878;8.142;2023-07-24T11:20:11;98813.91;;;31.19;43.41
66560;BME280;53413;49.878;8.142;2023-07-24T11:22:41;98818.19;;;31.45;42.78
66560;BME280;53413;49.878;8.142;2023-07-24T11:25:08;98824.09;;;31.61;42.89
66560;BME280;53413;49.878;8.142;2023-07-24T11:27:38;98811.72;;;31.65;42.91
66560;BME280;53413;49.878;8.142;2023-07-24T11:30:04;98813.34;;;31.73;42.05
66560;BME280;53413;49.878;8.142;2023-07-24T11:32:30;98808.66;;;31.61;42.02
66560;BME280;53413;49.878;8.142;2023-07-24T11:34:56;98808.34;;;31.51;42.01
66560;BME280;53413;49.878;8.142;2023-07-24T11:37:21;98800.69;;;31.29;42.04
66560;BME280;53413;49.878;8.142;2023-07-24T11:40:00;98798.59;;;31.31;42.76
66560;BME280;53413;49.878;8.142;2023-07-24T11:42:35;98792.03;;;31.58;42.57
66560;BME280;53413;49.878;8.142;2023-07-24T11:45:02;98785.63;;;31.89;42.46
66560;BME280;53413;49.878;8.142;2023-07-24T11:47:28;98781.63;;;32.22;42.68
66560;BME280;53413;49.878;8.142;2023-07-24T11:50:02;98779.47;;;32.13;41.64
66560;BME280;53413;49.878;8.142;2023-07-24T11:52:38;98781.50;;;31.68;42.09
66560;BME280;53413;49.878;8.142;2023-07-24T11:55:04;98774.88;;;31.64;42.06
66560;BME280;53413;49.878;8.142;2023-07-24T11:57:30;98773.31;;;31.56;42.30
66560;BME280;53413;49.878;8.142;2023-07-24T11:59:55;98770.38;;;31.58;41.77
66560;BME280;53413;49.878;8.142;2023-07-24T12:02:32;98767.06;;;31.19;42.55
66560;BME280;53413;49.878;8.142;2023-07-24T12:04:59;98771.06;;;30.91;42.69
66560;BME280;53413;49.878;8.142;2023-07-24T12:09:56;98743.16;;;30.39;43.41
66560;BME280;53413;49.878;8.142;2023-07-24T12:12:21;98753.09;;;30.14;43.82
66560;BME280;53413;49.878;8.142;2023-07-24T12:14:46;98752.41;;;30.25;43.99
66560;BME280;53413;49.878;8.142;2023-07-24T12:17:17;98747.59;;;30.27;44.01
66560;BME280;53413;49.878;8.142;2023-07-24T12:19:43;98745.06;;;30.07;44.41
66560;BME280;53413;49.878;8.142;2023-07-24T12:22:08;98730.06;;;29.66;44.95
66560;BME280;53413;49.878;8.142;2023-07-24T12:24:34;98735.75;;;29.51;45.99
66560;BME280;53413;49.878;8.142;2023-07-24T12:26:59;98730.81;;;29.34;46.27
66560;BME280;53413;49.878;8.142;2023-07-24T12:29:25;98741.44;;;29.02;46.82
66560;BME280;53413;49.878;8.142;2023-07-24T12:31:50;98736.72;;;28.77;47.08
66560;BME280;53413;49.878;8.142;2023-07-24T12:34:16;98740.03;;;28.86;47.21
66560;BME280;53413;49.878;8.142;2023-07-24T12:36:41;98727.59;;;28.78;47.33
66560;BME280;53413;49.878;8.142;2023-07-24T12:39:06;98727.16;;;28.81;47.42
66560;BME280;53413;49.878;8.142;2023-07-24T12:41:32;98719.88;;;29.02;47.35
66560;BME280;53413;49.878;8.142;2023-07-24T12:43:57;98734.16;;;29.09;47.37
66560;BME280;53413;49.878;8.142;2023-07-24T12:46:23;98736.88;;;29.02;47.63
66560;BME280;53413;49.878;8.142;2023-07-24T12:48:48;98739.19;;;28.79;48.20
66560;BME280;53413;49.878;8.142;2023-07-24T12:51:13;98733.38;;;28.68;48.43
66560;BME280;53413;49.878;8.142;2023-07-24T12:53:38;98725.91;;;28.44;49.25
66560;BME280;53413;49.878;8.142;2023-07-24T12:56:04;98716.38;;;28.34;49.92
66560;BME280;53413;49.878;8.142;2023-07-24T12:58:29;98721.50;;;28.09;50.56